createdAt,value
2022-12-17T00:01:27.042Z,30.98
2022-12-17T00:04:14.699Z,29.12
2022-12-17T00:07:02.329Z,28.39
2022-12-17T00:09:50.500Z,28.56
2022-12-17T00:12:38.212Z,31.81
2022-12-17T00:15:25.805Z,32.89
2022-12-17T00:18:13.434Z,33.00
2022-12-17T00:21:01.010Z,32.49
2022-12-17T00:23:48.621Z,29.84
2022-12-17T00:26:36.232Z,30.08
2022-12-17T00:29:23.833Z,28.67
2022-12-17T00:32:11.413Z,29.17
2022-12-17T00:34:59.011Z,29.13
2022-12-17T00:37:46.565Z,28.37
2022-12-17T00:40:34.197Z,29.32
2022-12-17T00:43:21.808Z,29.96
2022-12-17T00:46:09.380Z,29.81
2022-12-17T00:48:57.399Z,29.11
2022-12-17T00:51:45.009Z,30.48
2022-12-17T00:54:32.606Z,29.03
2022-12-17T00:57:20.216Z,30.21
2022-12-17T01:00:07.790Z,30.08
2022-12-17T01:02:55.435Z,30.03
2022-12-17T01:05:44.009Z,30.15
2022-12-17T01:08:31.623Z,26.77
2022-12-17T01:11:19.202Z,26.36
2022-12-17T01:14:06.811Z,28.61
2022-12-17T01:16:56.164Z,29.15
2022-12-17T01:19:44.093Z,30.96
2022-12-17T01:22:31.650Z,28.68
2022-12-17T01:25:19.239Z,26.17
2022-12-17T01:28:06.826Z,27.22
2022-12-17T01:30:54.458Z,30.59
2022-12-17T01:33:42.050Z,29.08
2022-12-17T01:36:29.654Z,27.08
2022-12-17T01:39:17.215Z,28.61
2022-12-17T01:42:04.795Z,26.98
2022-12-17T01:44:52.359Z,29.72
2022-12-17T01:47:39.953Z,26.14
2022-12-17T01:50:27.550Z,28.25
2022-12-17T01:53:15.143Z,29.54
2022-12-17T01:56:02.725Z,30.46
2022-12-17T01:58:50.329Z,32.21
2022-12-17T02:01:38.106Z,27.49
2022-12-17T02:04:25.780Z,25.96
2022-12-17T02:07:13.414Z,26.29
2022-12-17T02:10:01.072Z,28.28
2022-12-17T02:12:48.680Z,28.48
2022-12-17T02:15:36.291Z,29.13
2022-12-17T02:18:23.910Z,28.60
2022-12-17T02:21:11.501Z,31.17
2022-12-17T02:23:59.113Z,28.72
2022-12-17T02:26:46.686Z,29.56
2022-12-17T02:29:34.344Z,29.03
2022-12-17T02:32:21.933Z,28.39
2022-12-17T02:35:09.537Z,29.09
2022-12-17T02:37:57.150Z,27.16
2022-12-17T02:40:44.742Z,27.18
2022-12-17T02:43:32.487Z,28.81
2022-12-17T02:46:20.241Z,28.70
2022-12-17T02:49:07.834Z,29.16
2022-12-17T02:51:55.444Z,30.10
2022-12-17T02:54:43.059Z,30.93
2022-12-17T02:57:30.678Z,31.00
2022-12-17T03:00:18.286Z,30.21
2022-12-17T03:03:05.913Z,31.04
2022-12-17T03:05:53.506Z,29.28
2022-12-17T03:08:41.131Z,29.54
2022-12-17T03:11:28.711Z,29.35
2022-12-17T03:14:16.298Z,31.64
2022-12-17T03:17:04.069Z,31.19
2022-12-17T03:19:51.745Z,29.07
2022-12-17T03:22:39.336Z,32.34
2022-12-17T03:25:26.910Z,32.35
2022-12-17T03:28:14.494Z,32.65
2022-12-17T03:31:02.187Z,33.32
2022-12-17T03:33:49.828Z,31.50
2022-12-17T03:36:37.412Z,32.86
2022-12-17T03:39:24.982Z,31.22
2022-12-17T03:42:12.563Z,30.30
2022-12-17T03:45:00.155Z,29.83
2022-12-17T03:47:47.748Z,29.60
2022-12-17T03:50:35.343Z,31.73
2022-12-17T03:53:22.933Z,31.84
2022-12-17T03:56:10.514Z,30.98
2022-12-17T03:58:58.100Z,30.65
2022-12-17T04:01:45.776Z,29.68
2022-12-17T04:04:33.464Z,31.13
2022-12-17T04:07:21.048Z,33.25
2022-12-17T04:10:08.643Z,33.16
2022-12-17T04:13:10.492Z,34.24
2022-12-17T04:16:15.560Z,30.02
2022-12-17T04:19:20.585Z,31.55
2022-12-17T04:22:08.191Z,33.66
2022-12-17T04:24:55.767Z,32.68
2022-12-17T04:27:43.534Z,33.87
2022-12-17T04:30:31.188Z,33.36
2022-12-17T04:33:18.770Z,33.89
2022-12-17T04:36:06.370Z,34.62
2022-12-17T04:38:53.957Z,34.37
2022-12-17T04:41:41.552Z,35.92
2022-12-17T04:44:29.117Z,34.88
2022-12-17T04:47:18.746Z,36.42
2022-12-17T04:50:06.322Z,36.47
2022-12-17T04:52:53.935Z,37.93
2022-12-17T04:55:41.543Z,37.33
2022-12-17T04:58:29.127Z,39.34
2022-12-17T05:01:16.908Z,39.07
2022-12-17T05:04:04.627Z,38.47
2022-12-17T05:06:52.248Z,38.58
2022-12-17T05:09:39.873Z,40.65
2022-12-17T05:12:27.477Z,39.71
2022-12-17T05:15:15.077Z,38.21
2022-12-17T05:18:02.674Z,38.61
2022-12-17T05:20:50.286Z,38.83
2022-12-17T05:23:38.210Z,38.10
2022-12-17T05:26:26.052Z,38.88
2022-12-17T05:29:15.956Z,38.94
2022-12-17T05:32:03.850Z,39.25
2022-12-17T05:34:51.437Z,38.09
2022-12-17T05:37:39.811Z,39.29
2022-12-17T05:40:27.422Z,36.24
2022-12-17T05:43:14.993Z,37.00
2022-12-17T05:46:02.725Z,38.32
2022-12-17T05:48:50.343Z,39.65
2022-12-17T05:51:39.054Z,37.38
2022-12-17T05:54:26.853Z,38.32
2022-12-17T05:57:14.446Z,37.51
2022-12-17T06:00:02.037Z,37.91
2022-12-17T06:02:49.708Z,37.09
2022-12-17T06:05:37.411Z,38.17
2022-12-17T06:08:24.989Z,37.34
2022-12-17T06:11:12.563Z,38.24
2022-12-17T06:14:00.158Z,38.77
2022-12-17T06:16:47.735Z,36.91
2022-12-17T06:19:35.328Z,37.21
2022-12-17T06:22:22.893Z,35.81
2022-12-17T06:25:10.490Z,36.24
2022-12-17T06:27:58.087Z,36.51
2022-12-17T06:30:45.663Z,36.83
2022-12-17T06:33:33.485Z,34.75
2022-12-17T06:36:22.776Z,40.17
2022-12-17T06:39:10.537Z,36.84
2022-12-17T06:42:04.162Z,36.95
2022-12-17T06:44:52.457Z,37.36
2022-12-17T06:47:40.042Z,35.56
2022-12-17T06:50:27.632Z,37.04
2022-12-17T06:53:15.198Z,34.88
2022-12-17T06:56:02.859Z,35.33
2022-12-17T06:58:50.475Z,35.44
2022-12-17T07:01:38.111Z,35.22
2022-12-17T07:04:25.783Z,35.80
2022-12-17T07:07:13.380Z,34.50
2022-12-17T07:10:00.968Z,32.98
2022-12-17T07:12:48.591Z,32.12
2022-12-17T07:15:36.222Z,32.67
2022-12-17T07:18:26.617Z,34.61
2022-12-17T07:21:14.219Z,33.86
2022-12-17T07:24:01.803Z,33.45
2022-12-17T07:26:49.513Z,33.60
2022-12-17T07:29:37.096Z,34.04
2022-12-17T07:32:24.711Z,32.42
2022-12-17T07:35:12.314Z,32.48
2022-12-17T07:37:59.894Z,31.28
2022-12-17T07:40:47.504Z,31.35
2022-12-17T07:43:35.467Z,30.09
2022-12-17T07:46:23.425Z,31.07
2022-12-17T07:49:11.063Z,30.93
2022-12-17T07:51:58.681Z,30.50
2022-12-17T07:54:46.267Z,31.88
2022-12-17T07:57:33.868Z,33.36
2022-12-17T08:00:21.458Z,32.40
2022-12-17T08:03:09.177Z,32.63
2022-12-17T08:05:56.803Z,33.13
2022-12-17T08:08:44.398Z,32.78
2022-12-17T08:11:31.963Z,31.27
2022-12-17T08:14:19.584Z,29.68
2022-12-17T08:17:07.173Z,29.99
2022-12-17T08:19:54.793Z,29.42
2022-12-17T08:22:42.419Z,30.47
2022-12-17T08:25:30.008Z,28.05
2022-12-17T08:28:48.423Z,27.66
2022-12-17T08:31:25.180Z,28.18
2022-12-17T08:34:12.765Z,29.16
2022-12-17T08:37:00.370Z,29.09
2022-12-17T08:39:47.950Z,28.91
2022-12-17T08:42:35.547Z,28.44
2022-12-17T08:45:23.168Z,28.48
2022-12-17T08:48:10.765Z,27.90
2022-12-17T08:50:58.353Z,29.48
2022-12-17T08:53:45.939Z,28.78
2022-12-17T08:56:33.544Z,28.98
2022-12-17T08:59:21.125Z,28.38
2022-12-17T09:02:08.933Z,28.76
2022-12-17T09:04:56.730Z,27.33
2022-12-17T09:07:44.310Z,28.46
2022-12-17T09:10:31.902Z,30.29
2022-12-17T09:13:19.491Z,30.05
2022-12-17T09:16:07.095Z,30.76
2022-12-17T09:18:54.752Z,31.84
2022-12-17T09:21:42.320Z,30.95
2022-12-17T09:24:29.922Z,30.93
2022-12-17T09:27:17.505Z,30.98
2022-12-17T09:30:07.101Z,32.38
2022-12-17T09:32:54.662Z,31.11
2022-12-17T09:35:42.257Z,31.59
2022-12-17T09:38:29.865Z,31.77
2022-12-17T09:41:17.468Z,32.91
2022-12-17T09:44:05.044Z,32.25
2022-12-17T09:46:52.632Z,32.82
2022-12-17T09:49:40.221Z,31.82
2022-12-17T09:52:27.819Z,30.80
2022-12-17T09:55:15.427Z,31.28
2022-12-17T09:58:03.044Z,31.11
2022-12-17T10:00:50.619Z,31.59
2022-12-17T10:03:38.709Z,30.65
2022-12-17T10:06:26.591Z,30.78
2022-12-17T10:09:14.175Z,30.83
2022-12-17T10:12:01.767Z,31.76
2022-12-17T10:14:49.374Z,33.32
2022-12-17T10:17:36.958Z,33.04
2022-12-17T10:20:24.565Z,31.89
2022-12-17T10:23:12.158Z,34.56
2022-12-17T10:25:59.764Z,46.07
2022-12-17T10:28:49.386Z,84.94
2022-12-17T10:31:36.991Z,40.62
2022-12-17T10:34:24.618Z,34.48
2022-12-17T10:37:12.202Z,33.47
2022-12-17T10:39:59.778Z,32.87
2022-12-17T10:42:47.338Z,31.58
2022-12-17T10:45:34.930Z,30.97
2022-12-17T10:48:22.526Z,31.29
2022-12-17T10:51:10.107Z,31.65
2022-12-17T10:53:57.708Z,30.83
2022-12-17T10:56:45.326Z,31.11
2022-12-17T10:59:32.954Z,31.25
2022-12-17T11:02:20.660Z,30.74
2022-12-17T11:05:08.406Z,31.37
2022-12-17T11:07:55.999Z,31.83
2022-12-17T11:10:43.567Z,30.84
2022-12-17T11:13:31.159Z,30.97
2022-12-17T11:16:18.853Z,31.02
2022-12-17T11:19:06.510Z,30.64
2022-12-17T11:21:54.120Z,30.92
2022-12-17T11:24:41.693Z,32.13
2022-12-17T11:27:29.302Z,31.89
2022-12-17T11:30:16.901Z,31.33
2022-12-17T11:33:04.539Z,31.39
2022-12-17T11:35:52.128Z,34.27
2022-12-17T11:38:40.183Z,32.02
2022-12-17T11:41:27.883Z,29.58
2022-12-17T11:44:15.600Z,30.40
2022-12-17T11:47:03.183Z,30.14
2022-12-17T11:49:50.758Z,29.88
2022-12-17T11:52:38.329Z,29.76
2022-12-17T11:55:25.926Z,29.70
2022-12-17T11:58:13.499Z,29.51
2022-12-17T12:01:01.098Z,29.83
2022-12-17T12:03:48.881Z,30.60
2022-12-17T12:06:36.494Z,29.63
2022-12-17T12:09:26.192Z,30.69
2022-12-17T12:12:13.768Z,30.99
2022-12-17T12:15:01.366Z,30.40
2022-12-17T12:17:48.979Z,28.78
2022-12-17T12:20:36.572Z,29.38
2022-12-17T12:23:24.151Z,29.87
2022-12-17T12:26:11.824Z,30.79
2022-12-17T12:28:59.453Z,30.97
2022-12-17T12:31:47.180Z,29.95
2022-12-17T12:34:34.806Z,30.28
2022-12-17T12:37:22.417Z,29.42
2022-12-17T12:40:10.066Z,29.25
2022-12-17T12:42:57.750Z,29.51
2022-12-17T12:45:45.407Z,29.66
2022-12-17T12:48:33.080Z,29.20
2022-12-17T12:51:20.678Z,29.51
2022-12-17T12:54:08.274Z,29.45
2022-12-17T12:56:55.870Z,29.29
2022-12-17T12:59:43.479Z,28.81
2022-12-17T13:02:31.164Z,29.51
2022-12-17T13:05:18.906Z,28.86
2022-12-17T13:08:06.521Z,28.60
2022-12-17T13:10:54.095Z,28.92
2022-12-17T13:13:41.712Z,29.51
2022-12-17T13:16:29.393Z,30.29
2022-12-17T13:19:17.031Z,30.14
2022-12-17T13:22:04.627Z,30.05
2022-12-17T13:24:52.221Z,30.39
2022-12-17T13:27:39.829Z,29.28
2022-12-17T13:30:27.399Z,28.77
2022-12-17T13:33:15.005Z,28.54
2022-12-17T13:36:02.631Z,29.50
2022-12-17T13:38:52.241Z,28.59
2022-12-17T13:41:39.813Z,28.41
2022-12-17T13:44:27.429Z,28.02
2022-12-17T13:47:15.027Z,28.23
2022-12-17T13:50:33.346Z,27.33
2022-12-17T13:53:12.691Z,27.87
2022-12-17T13:56:00.277Z,27.23
2022-12-17T13:58:51.085Z,27.62
2022-12-17T14:01:39.076Z,26.97
2022-12-17T14:04:26.803Z,27.03
2022-12-17T14:07:14.383Z,28.04
2022-12-17T14:10:01.947Z,29.31
2022-12-17T14:12:49.654Z,29.01
2022-12-17T14:15:37.214Z,30.77
2022-12-17T14:18:24.827Z,29.32
2022-12-17T14:21:12.446Z,29.45
2022-12-17T14:24:00.040Z,29.08
2022-12-17T14:26:47.614Z,29.22
2022-12-17T14:29:35.199Z,30.55
2022-12-17T14:32:22.823Z,30.26
2022-12-17T14:35:10.416Z,31.75
2022-12-17T14:37:58.018Z,31.44
2022-12-17T14:40:45.629Z,31.08
2022-12-17T14:43:33.217Z,31.35
2022-12-17T14:46:20.927Z,31.70
2022-12-17T14:49:08.522Z,30.23
2022-12-17T14:51:56.115Z,32.19
2022-12-17T14:54:43.678Z,32.04
2022-12-17T14:57:31.298Z,31.23
2022-12-17T15:00:18.920Z,33.17
2022-12-17T15:03:06.719Z,32.05
2022-12-17T15:05:54.446Z,32.18
2022-12-17T15:08:42.236Z,33.00
2022-12-17T15:11:29.923Z,33.46
2022-12-17T15:14:17.510Z,33.77
2022-12-17T15:17:05.099Z,33.86
2022-12-17T15:19:56.298Z,33.81
2022-12-17T15:22:44.078Z,34.65
2022-12-17T15:25:31.672Z,36.02
2022-12-17T15:28:19.242Z,37.33
2022-12-17T15:31:06.868Z,39.19
2022-12-17T15:33:54.454Z,37.38
2022-12-17T15:36:42.047Z,35.93
2022-12-17T15:39:29.664Z,36.66
2022-12-17T15:42:17.250Z,38.10
2022-12-17T15:45:04.873Z,36.45
2022-12-17T15:47:52.471Z,35.40
2022-12-17T15:50:40.085Z,35.97
2022-12-17T15:53:27.682Z,36.17
2022-12-17T15:56:15.289Z,35.31
2022-12-17T15:59:02.877Z,36.44
2022-12-17T16:01:50.641Z,35.42
2022-12-17T16:04:38.401Z,34.83
2022-12-17T16:07:25.970Z,36.56
2022-12-17T16:10:13.579Z,39.60
2022-12-17T16:13:01.172Z,40.75
2022-12-17T16:15:48.820Z,36.92
2022-12-17T16:18:36.790Z,36.62
2022-12-17T16:21:24.580Z,37.06
2022-12-17T16:24:12.212Z,37.17
2022-12-17T16:27:04.359Z,36.63
2022-12-17T16:29:52.435Z,35.11
2022-12-17T16:32:40.119Z,39.00
2022-12-17T16:35:27.750Z,37.03
2022-12-17T16:38:15.362Z,41.39
2022-12-17T16:41:02.961Z,43.40
2022-12-17T16:43:50.602Z,44.32
2022-12-17T16:46:38.235Z,41.10
2022-12-17T16:49:25.994Z,41.07
2022-12-17T16:52:13.575Z,48.01
2022-12-17T16:55:01.164Z,39.04
2022-12-17T16:57:48.940Z,36.49
2022-12-17T17:00:36.533Z,37.92
2022-12-17T17:03:24.266Z,37.53
2022-12-17T17:06:12.025Z,38.28
2022-12-17T17:08:59.628Z,39.51
2022-12-17T17:11:51.412Z,40.91
2022-12-17T17:14:39.802Z,38.44
2022-12-17T17:17:56.063Z,41.33
2022-12-17T17:20:34.944Z,40.77
2022-12-17T17:23:22.551Z,37.32
2022-12-17T17:26:10.125Z,36.81
2022-12-17T17:28:57.741Z,37.37
2022-12-17T17:34:52.878Z,38.86
2022-12-17T17:37:40.468Z,39.56
2022-12-17T17:40:28.048Z,37.68
2022-12-17T17:43:15.655Z,38.99
2022-12-17T17:46:03.267Z,39.23
2022-12-17T17:48:55.378Z,39.93
2022-12-17T17:54:52.099Z,39.79
2022-12-17T17:57:39.708Z,40.36
2022-12-17T18:00:27.310Z,41.42
2022-12-17T18:03:15.212Z,38.35
2022-12-17T18:06:02.816Z,39.10
2022-12-17T18:08:51.487Z,39.84
2022-12-17T18:11:39.045Z,41.25
2022-12-17T18:14:26.651Z,40.66
2022-12-17T18:17:14.242Z,39.07
2022-12-17T18:20:01.851Z,41.26
2022-12-17T18:22:49.453Z,38.17
2022-12-17T18:25:37.883Z,40.38
2022-12-17T18:28:25.629Z,38.72
2022-12-17T18:31:13.352Z,39.23
2022-12-17T18:34:01.048Z,38.71
2022-12-17T18:36:48.773Z,38.40
2022-12-17T18:39:36.351Z,39.69
2022-12-17T18:42:23.961Z,38.90
2022-12-17T18:45:11.550Z,40.56
2022-12-17T18:47:59.148Z,40.11
2022-12-17T18:50:46.735Z,41.09
2022-12-17T18:53:34.326Z,41.26
2022-12-17T18:56:44.844Z,45.58
2022-12-17T18:59:29.578Z,39.34
2022-12-17T19:02:17.275Z,40.36
2022-12-17T19:05:04.981Z,41.86
2022-12-17T19:07:52.559Z,51.02
2022-12-17T19:10:40.173Z,48.26
2022-12-17T19:13:27.741Z,43.89
2022-12-17T19:16:15.368Z,38.67
2022-12-17T19:19:03.073Z,39.30
2022-12-17T19:21:50.651Z,41.26
2022-12-17T19:24:38.250Z,40.60
2022-12-17T19:27:25.876Z,41.33
2022-12-17T19:30:13.465Z,42.26
2022-12-17T19:33:01.070Z,41.98
2022-12-17T19:35:48.671Z,40.75
2022-12-17T19:38:36.448Z,41.17
2022-12-17T19:41:24.281Z,40.88
2022-12-17T19:44:11.871Z,40.67
2022-12-17T19:46:59.611Z,41.31
2022-12-17T19:49:47.185Z,40.05
2022-12-17T19:52:34.793Z,40.14
2022-12-17T19:55:22.400Z,42.84
2022-12-17T19:58:10.009Z,41.86
2022-12-17T20:00:57.742Z,43.07
2022-12-17T20:03:45.586Z,48.20
2022-12-17T20:06:33.162Z,47.45
2022-12-17T20:09:20.760Z,49.23
2022-12-17T20:12:08.373Z,46.49
2022-12-17T20:14:55.943Z,45.91
2022-12-17T20:17:43.539Z,48.27
2022-12-17T20:20:31.147Z,43.23
2022-12-17T20:23:18.754Z,40.06
2022-12-17T20:26:06.339Z,40.47
2022-12-17T20:28:53.901Z,38.11
2022-12-17T20:31:45.442Z,38.01
2022-12-17T20:34:35.651Z,37.60
2022-12-17T20:37:23.245Z,37.16
2022-12-17T20:40:10.839Z,36.66
2022-12-17T20:42:58.418Z,37.31
2022-12-17T20:45:46.064Z,39.18
2022-12-17T20:48:33.714Z,38.64
2022-12-17T20:51:21.340Z,40.04
2022-12-17T20:54:08.985Z,39.80
2022-12-17T20:56:56.610Z,39.87
2022-12-17T20:59:44.240Z,39.68
2022-12-17T21:02:31.985Z,39.73
2022-12-17T21:05:21.742Z,40.89
2022-12-17T21:08:09.331Z,40.97
2022-12-17T21:10:56.947Z,41.01
2022-12-17T21:13:44.551Z,40.54
2022-12-17T21:16:32.469Z,41.55
2022-12-17T21:19:20.305Z,40.20
2022-12-17T21:22:08.912Z,40.51
2022-12-17T21:24:58.216Z,42.72
2022-12-17T21:27:45.813Z,41.61
2022-12-17T21:30:33.471Z,42.54
2022-12-17T21:33:23.094Z,44.49
2022-12-17T21:36:10.895Z,40.64
2022-12-17T21:38:58.512Z,40.52
2022-12-17T21:41:46.087Z,42.12
2022-12-17T21:44:35.687Z,43.85
2022-12-17T21:47:23.273Z,41.30
2022-12-17T21:50:10.875Z,39.29
2022-12-17T21:52:58.438Z,39.86
2022-12-17T21:55:46.042Z,38.70
2022-12-17T21:58:33.962Z,38.45
2022-12-17T22:01:22.214Z,38.09
2022-12-17T22:04:09.976Z,38.55
2022-12-17T22:07:09.672Z,39.06
2022-12-17T22:10:27.503Z,39.36
2022-12-17T22:13:06.400Z,38.44
2022-12-17T22:15:54.079Z,38.93
2022-12-17T22:18:42.117Z,39.34
2022-12-17T22:21:29.847Z,40.06
2022-12-17T22:24:17.481Z,40.14
2022-12-17T22:27:08.478Z,39.90
2022-12-17T22:29:57.391Z,40.11
2022-12-17T22:32:45.014Z,39.21
2022-12-17T22:36:37.495Z,40.10
2022-12-17T22:42:40.471Z,39.43
2022-12-17T22:44:37.716Z,40.24
2022-12-17T22:45:02.032Z,39.23
2022-12-17T22:47:53.893Z,38.38
2022-12-17T22:50:44.259Z,39.78
2022-12-17T22:53:38.906Z,39.51
2022-12-17T22:56:54.127Z,40.13
2022-12-17T22:59:35.098Z,38.30
2022-12-17T23:02:22.791Z,37.73
2022-12-17T23:05:10.481Z,38.89
2022-12-17T23:07:58.047Z,38.27
2022-12-17T23:10:45.668Z,36.73
2022-12-17T23:13:33.290Z,37.74
2022-12-17T23:16:20.981Z,36.88
2022-12-17T23:19:08.717Z,36.84
2022-12-17T23:21:56.289Z,35.83
2022-12-17T23:24:43.938Z,35.95
2022-12-17T23:27:31.544Z,35.19
2022-12-17T23:30:19.154Z,36.55
2022-12-17T23:33:06.722Z,35.93
2022-12-17T23:35:54.346Z,35.70
2022-12-17T23:38:41.975Z,35.72
2022-12-17T23:41:29.653Z,35.43
2022-12-17T23:44:17.306Z,35.87
2022-12-17T23:47:05.013Z,37.08
2022-12-17T23:49:52.639Z,36.55
2022-12-17T23:52:40.219Z,36.64
2022-12-17T23:55:27.822Z,36.36
2022-12-17T23:58:15.410Z,36.15
